sensor_id;sensor_type;location;lat;lon;timestamp;P1;durP1;ratioP1;P2;durP2;ratioP2
61330;SDS011;71993;52.478;-1.918;2023-12-20T00:00:17;9.90;;;3.00;;
61330;SDS011;71993;52.478;-1.918;2023-12-20T00:02:48;7.63;;;2.50;;
61330;SDS011;71993;52.478;-1.918;2023-12-20T00:05:18;5.38;;;2.30;;
61330;SDS011;71993;52.478;-1.918;2023-12-20T00:07:49;7.82;;;2.25;;
61330;SDS011;71993;52.478;-1.918;2023-12-20T00:10:22;6.25;;;2.30;;
61330;SDS011;71993;52.478;-1.918;2023-12-20T00:12:53;9.15;;;2.55;;
61330;SDS011;71993;52.478;-1.918;2023-12-20T00:15:23;7.57;;;2.50;;
61330;SDS011;71993;52.478;-1.918;2023-12-20T00:17:54;5.03;;;2.50;;
61330;SDS011;71993;52.478;-1.918;2023-12-20T00:20:22;7.53;;;2.33;;
61330;SDS011;71993;52.478;-1.918;2023-12-20T00:22:48;6.13;;;2.30;;
61330;SDS011;71993;52.478;-1.918;2023-12-20T00:25:18;7.30;;;2.42;;
61330;SDS011;71993;52.478;-1.918;2023-12-20T00:27:51;4.88;;;2.53;;
61330;SDS011;71993;52.478;-1.918;2023-12-20T00:30:22;5.57;;;2.40;;
61330;SDS011;71993;52.478;-1.918;2023-12-20T00:32:50;4.85;;;2.70;;
61330;SDS011;71993;52.478;-1.918;2023-12-20T00:35:19;5.07;;;2.60;;
61330;SDS011;71993;52.478;-1.918;2023-12-20T00:37:49;6.68;;;2.65;;
61330;SDS011;71993;52.478;-1.918;2023-12-20T00:40:20;5.85;;;2.53;;
61330;SDS011;71993;52.478;-1.918;2023-12-20T00:42:53;4.88;;;2.50;;
61330;SDS011;71993;52.478;-1.918;2023-12-20T00:45:24;7.47;;;2.60;;
61330;SDS011;71993;52.478;-1.918;2023-12-20T00:47:54;4.55;;;2.20;;
61330;SDS011;71993;52.478;-1.918;2023-12-20T00:50:26;6.15;;;2.63;;
61330;SDS011;71993;52.478;-1.918;2023-12-20T00:52:57;4.65;;;2.17;;
61330;SDS011;71993;52.478;-1.918;2023-12-20T00:55:27;4.55;;;2.60;;
61330;SDS011;71993;52.478;-1.918;2023-12-20T00:58:00;5.72;;;2.47;;
61330;SDS011;71993;52.478;-1.918;2023-12-20T01:00:30;6.03;;;2.40;;
61330;SDS011;71993;52.478;-1.918;2023-12-20T01:03:01;5.53;;;2.20;;
61330;SDS011;71993;52.478;-1.918;2023-12-20T01:05:31;5.80;;;2.20;;
61330;SDS011;71993;52.478;-1.918;2023-12-20T01:08:02;4.82;;;2.10;;
61330;SDS011;71993;52.478;-1.918;2023-12-20T01:10:33;7.72;;;2.38;;
61330;SDS011;71993;52.478;-1.918;2023-12-20T01:13:04;5.00;;;2.05;;
61330;SDS011;71993;52.478;-1.918;2023-12-20T01:15:34;3.65;;;1.88;;
61330;SDS011;71993;52.478;-1.918;2023-12-20T01:18:05;4.32;;;2.08;;
61330;SDS011;71993;52.478;-1.918;2023-12-20T01:20:34;7.53;;;2.10;;
61330;SDS011;71993;52.478;-1.918;2023-12-20T01:23:02;5.40;;;1.83;;
61330;SDS011;71993;52.478;-1.918;2023-12-20T01:25:33;4.55;;;2.00;;
61330;SDS011;71993;52.478;-1.918;2023-12-20T01:28:06;3.03;;;1.65;;
61330;SDS011;71993;52.478;-1.918;2023-12-20T01:30:36;3.95;;;2.00;;
61330;SDS011;71993;52.478;-1.918;2023-12-20T01:33:07;5.28;;;1.92;;
61330;SDS011;71993;52.478;-1.918;2023-12-20T01:35:37;4.22;;;1.95;;
61330;SDS011;71993;52.478;-1.918;2023-12-20T01:38:08;5.85;;;1.60;;
61330;SDS011;71993;52.478;-1.918;2023-12-20T01:40:39;4.30;;;1.55;;
61330;SDS011;71993;52.478;-1.918;2023-12-20T01:43:12;3.30;;;1.60;;
61330;SDS011;71993;52.478;-1.918;2023-12-20T01:45:43;3.65;;;1.73;;
61330;SDS011;71993;52.478;-1.918;2023-12-20T01:48:13;3.38;;;1.38;;
61330;SDS011;71993;52.478;-1.918;2023-12-20T01:50:46;4.35;;;1.60;;
61330;SDS011;71993;52.478;-1.918;2023-12-20T01:53:16;4.00;;;1.67;;
61330;SDS011;71993;52.478;-1.918;2023-12-20T01:55:47;3.22;;;1.52;;
61330;SDS011;71993;52.478;-1.918;2023-12-20T01:58:21;2.83;;;1.50;;
61330;SDS011;71993;52.478;-1.918;2023-12-20T02:00:52;2.38;;;1.50;;
61330;SDS011;71993;52.478;-1.918;2023-12-20T02:03:22;2.72;;;1.40;;
61330;SDS011;71993;52.478;-1.918;2023-12-20T02:05:53;2.67;;;1.30;;
61330;SDS011;71993;52.478;-1.918;2023-12-20T02:08:24;3.47;;;1.45;;
61330;SDS011;71993;52.478;-1.918;2023-12-20T02:10:54;2.90;;;1.50;;
61330;SDS011;71993;52.478;-1.918;2023-12-20T02:13:28;2.95;;;1.20;;
61330;SDS011;71993;52.478;-1.918;2023-12-20T02:15:59;4.10;;;1.30;;
61330;SDS011;71993;52.478;-1.918;2023-12-20T02:18:30;2.42;;;1.33;;
61330;SDS011;71993;52.478;-1.918;2023-12-20T02:21:00;2.97;;;1.33;;
61330;SDS011;71993;52.478;-1.918;2023-12-20T02:23:33;3.08;;;1.30;;
61330;SDS011;71993;52.478;-1.918;2023-12-20T02:26:04;3.50;;;1.38;;
61330;SDS011;71993;52.478;-1.918;2023-12-20T02:28:34;3.67;;;1.40;;
61330;SDS011;71993;52.478;-1.918;2023-12-20T02:31:05;2.35;;;1.27;;
61330;SDS011;71993;52.478;-1.918;2023-12-20T02:33:36;1.95;;;1.10;;
61330;SDS011;71993;52.478;-1.918;2023-12-20T02:36:07;2.60;;;1.20;;
61330;SDS011;71993;52.478;-1.918;2023-12-20T02:38:40;2.38;;;1.10;;
61330;SDS011;71993;52.478;-1.918;2023-12-20T02:41:10;2.58;;;1.40;;
61330;SDS011;71993;52.478;-1.918;2023-12-20T02:43:41;2.42;;;1.02;;
61330;SDS011;71993;52.478;-1.918;2023-12-20T02:46:10;2.38;;;1.00;;
61330;SDS011;71993;52.478;-1.918;2023-12-20T02:48:39;3.00;;;1.17;;
61330;SDS011;71993;52.478;-1.918;2023-12-20T02:51:09;2.70;;;1.10;;
61330;SDS011;71993;52.478;-1.918;2023-12-20T02:53:42;2.85;;;0.95;;
61330;SDS011;71993;52.478;-1.918;2023-12-20T02:56:13;2.92;;;1.15;;
61330;SDS011;71993;52.478;-1.918;2023-12-20T02:58:43;2.65;;;1.00;;
61330;SDS011;71993;52.478;-1.918;2023-12-20T03:01:12;2.80;;;1.02;;
61330;SDS011;71993;52.478;-1.918;2023-12-20T03:03:40;2.83;;;1.10;;
61330;SDS011;71993;52.478;-1.918;2023-12-20T03:06:10;2.67;;;1.00;;
61330;SDS011;71993;52.478;-1.918;2023-12-20T03:08:44;2.92;;;1.02;;
61330;SDS011;71993;52.478;-1.918;2023-12-20T03:11:12;2.72;;;1.00;;
61330;SDS011;71993;52.478;-1.918;2023-12-20T03:13:43;2.45;;;1.20;;
61330;SDS011;71993;52.478;-1.918;2023-12-20T03:16:13;2.35;;;1.00;;
61330;SDS011;71993;52.478;-1.918;2023-12-20T03:18:44;1.38;;;0.80;;
61330;SDS011;71993;52.478;-1.918;2023-12-20T03:21:14;2.75;;;1.00;;
61330;SDS011;71993;52.478;-1.918;2023-12-20T03:23:47;1.88;;;0.70;;
61330;SDS011;71993;52.478;-1.918;2023-12-20T03:26:18;2.58;;;1.00;;
61330;SDS011;71993;52.478;-1.918;2023-12-20T03:28:47;1.75;;;0.85;;
61330;SDS011;71993;52.478;-1.918;2023-12-20T03:31:19;1.23;;;0.80;;
61330;SDS011;71993;52.478;-1.918;2023-12-20T03:33:49;1.50;;;0.75;;
61330;SDS011;71993;52.478;-1.918;2023-12-20T03:36:21;3.30;;;1.10;;
61330;SDS011;71993;52.478;-1.918;2023-12-20T03:38:54;2.10;;;0.75;;
61330;SDS011;71993;52.478;-1.918;2023-12-20T03:41:24;5.03;;;1.23;;
61330;SDS011;71993;52.478;-1.918;2023-12-20T03:43:53;2.40;;;1.00;;
61330;SDS011;71993;52.478;-1.918;2023-12-20T03:46:21;1.58;;;0.70;;
61330;SDS011;71993;52.478;-1.918;2023-12-20T03:48:52;1.63;;;0.70;;
61330;SDS011;71993;52.478;-1.918;2023-12-20T03:51:22;2.78;;;0.90;;
61330;SDS011;71993;52.478;-1.918;2023-12-20T03:53:55;2.72;;;0.93;;
61330;SDS011;71993;52.478;-1.918;2023-12-20T03:56:25;1.85;;;0.70;;
61330;SDS011;71993;52.478;-1.918;2023-12-20T03:58:56;3.33;;;0.90;;
61330;SDS011;71993;52.478;-1.918;2023-12-20T04:01:26;1.98;;;0.90;;
61330;SDS011;71993;52.478;-1.918;2023-12-20T04:03:57;3.65;;;0.98;;
61330;SDS011;71993;52.478;-1.918;2023-12-20T04:06:27;3.05;;;0.90;;
61330;SDS011;71993;52.478;-1.918;2023-12-20T04:09:00;1.88;;;0.70;;
61330;SDS011;71993;52.478;-1.918;2023-12-20T04:11:29;3.38;;;1.02;;
61330;SDS011;71993;52.478;-1.918;2023-12-20T04:13:59;2.47;;;0.85;;
61330;SDS011;71993;52.478;-1.918;2023-12-20T04:16:30;2.47;;;0.82;;
61330;SDS011;71993;52.478;-1.918;2023-12-20T04:19:00;2.53;;;0.80;;
61330;SDS011;71993;52.478;-1.918;2023-12-20T04:21:31;2.13;;;1.00;;
61330;SDS011;71993;52.478;-1.918;2023-12-20T04:24:04;2.40;;;0.90;;
61330;SDS011;71993;52.478;-1.918;2023-12-20T04:26:35;1.80;;;0.73;;
61330;SDS011;71993;52.478;-1.918;2023-12-20T04:29:06;2.35;;;0.70;;
61330;SDS011;71993;52.478;-1.918;2023-12-20T04:31:36;1.48;;;0.70;;
61330;SDS011;71993;52.478;-1.918;2023-12-20T04:34:06;2.60;;;0.80;;
61330;SDS011;71993;52.478;-1.918;2023-12-20T04:36:37;2.78;;;0.80;;
61330;SDS011;71993;52.478;-1.918;2023-12-20T04:39:11;2.25;;;0.85;;
61330;SDS011;71993;52.478;-1.918;2023-12-20T04:41:42;2.28;;;0.75;;
61330;SDS011;71993;52.478;-1.918;2023-12-20T04:44:14;1.25;;;0.70;;
61330;SDS011;71993;52.478;-1.918;2023-12-20T04:46:45;3.05;;;0.77;;
61330;SDS011;71993;52.478;-1.918;2023-12-20T04:49:15;1.63;;;0.70;;
61330;SDS011;71993;52.478;-1.918;2023-12-20T04:51:46;1.80;;;0.70;;
61330;SDS011;71993;52.478;-1.918;2023-12-20T04:54:19;1.77;;;0.60;;
61330;SDS011;71993;52.478;-1.918;2023-12-20T04:56:49;2.30;;;0.80;;
61330;SDS011;71993;52.478;-1.918;2023-12-20T04:59:20;2.30;;;0.90;;
61330;SDS011;71993;52.478;-1.918;2023-12-20T05:01:48;2.47;;;0.75;;
61330;SDS011;71993;52.478;-1.918;2023-12-20T05:04:17;1.33;;;0.55;;
61330;SDS011;71993;52.478;-1.918;2023-12-20T05:06:47;4.15;;;0.88;;
61330;SDS011;71993;52.478;-1.918;2023-12-20T05:09:21;2.42;;;0.70;;
61330;SDS011;71993;52.478;-1.918;2023-12-20T05:11:50;1.73;;;0.90;;
61330;SDS011;71993;52.478;-1.918;2023-12-20T05:14:22;2.55;;;0.80;;
61330;SDS011;71993;52.478;-1.918;2023-12-20T05:16:53;1.80;;;0.77;;
61330;SDS011;71993;52.478;-1.918;2023-12-20T05:19:24;2.10;;;0.82;;
61330;SDS011;71993;52.478;-1.918;2023-12-20T05:21:54;2.28;;;0.88;;
61330;SDS011;71993;52.478;-1.918;2023-12-20T05:24:27;1.92;;;0.60;;
61330;SDS011;71993;52.478;-1.918;2023-12-20T05:26:58;1.40;;;0.50;;
61330;SDS011;71993;52.478;-1.918;2023-12-20T05:29:28;1.25;;;0.50;;
61330;SDS011;71993;52.478;-1.918;2023-12-20T05:31:59;1.73;;;0.60;;
61330;SDS011;71993;52.478;-1.918;2023-12-20T05:34:31;2.88;;;0.77;;
61330;SDS011;71993;52.478;-1.918;2023-12-20T05:37:01;2.50;;;0.70;;
61330;SDS011;71993;52.478;-1.918;2023-12-20T05:39:34;1.70;;;0.68;;
61330;SDS011;71993;52.478;-1.918;2023-12-20T05:42:05;1.67;;;0.60;;
61330;SDS011;71993;52.478;-1.918;2023-12-20T05:44:35;3.00;;;0.77;;
61330;SDS011;71993;52.478;-1.918;2023-12-20T05:47:04;2.03;;;0.70;;
61330;SDS011;71993;52.478;-1.918;2023-12-20T05:49:32;1.52;;;0.60;;
61330;SDS011;71993;52.478;-1.918;2023-12-20T05:52:03;1.95;;;0.80;;
61330;SDS011;71993;52.478;-1.918;2023-12-20T05:54:36;3.78;;;0.70;;
61330;SDS011;71993;52.478;-1.918;2023-12-20T05:57:07;2.40;;;0.73;;
61330;SDS011;71993;52.478;-1.918;2023-12-20T05:59:37;2.58;;;0.75;;
61330;SDS011;71993;52.478;-1.918;2023-12-20T06:02:06;2.92;;;0.70;;
61330;SDS011;71993;52.478;-1.918;2023-12-20T06:04:34;1.33;;;0.50;;
61330;SDS011;71993;52.478;-1.918;2023-12-20T06:07:05;2.15;;;0.60;;
61330;SDS011;71993;52.478;-1.918;2023-12-20T06:09:38;1.92;;;0.60;;
61330;SDS011;71993;52.478;-1.918;2023-12-20T06:12:08;2.03;;;0.68;;
61330;SDS011;71993;52.478;-1.918;2023-12-20T06:14:39;1.88;;;0.70;;
61330;SDS011;71993;52.478;-1.918;2023-12-20T06:17:09;3.53;;;0.70;;
61330;SDS011;71993;52.478;-1.918;2023-12-20T06:19:38;1.58;;;0.63;;
61330;SDS011;71993;52.478;-1.918;2023-12-20T06:22:11;2.00;;;0.52;;
61330;SDS011;71993;52.478;-1.918;2023-12-20T06:24:44;1.95;;;0.70;;
61330;SDS011;71993;52.478;-1.918;2023-12-20T06:27:14;1.40;;;0.60;;
61330;SDS011;71993;52.478;-1.918;2023-12-20T06:29:43;2.03;;;0.60;;
61330;SDS011;71993;52.478;-1.918;2023-12-20T06:32:11;1.77;;;0.70;;
61330;SDS011;71993;52.478;-1.918;2023-12-20T06:34:42;1.40;;;0.60;;
61330;SDS011;71993;52.478;-1.918;2023-12-20T06:37:12;1.17;;;0.50;;
61330;SDS011;71993;52.478;-1.918;2023-12-20T06:39:40;1.48;;;0.60;;
61330;SDS011;71993;52.478;-1.918;2023-12-20T06:42:13;0.75;;;0.40;;
61330;SDS011;71993;52.478;-1.918;2023-12-20T06:44:44;1.52;;;0.60;;
61330;SDS011;71993;52.478;-1.918;2023-12-20T06:47:14;1.45;;;0.52;;
61330;SDS011;71993;52.478;-1.918;2023-12-20T06:49:44;2.00;;;0.50;;
61330;SDS011;71993;52.478;-1.918;2023-12-20T06:52:15;1.30;;;0.55;;
61330;SDS011;71993;52.478;-1.918;2023-12-20T06:54:46;1.50;;;0.52;;
61330;SDS011;71993;52.478;-1.918;2023-12-20T06:57:19;2.42;;;0.63;;
61330;SDS011;71993;52.478;-1.918;2023-12-20T06:59:49;2.53;;;0.77;;
61330;SDS011;71993;52.478;-1.918;2023-12-20T07:02:20;1.42;;;0.50;;
61330;SDS011;71993;52.478;-1.918;2023-12-20T07:04:50;1.85;;;0.60;;
61330;SDS011;71993;52.478;-1.918;2023-12-20T07:07:19;1.58;;;0.60;;
61330;SDS011;71993;52.478;-1.918;2023-12-20T07:09:50;1.42;;;0.47;;
61330;SDS011;71993;52.478;-1.918;2023-12-20T07:12:23;1.33;;;0.60;;
61330;SDS011;71993;52.478;-1.918;2023-12-20T07:14:54;2.15;;;0.50;;
61330;SDS011;71993;52.478;-1.918;2023-12-20T07:17:24;1.92;;;0.70;;
61330;SDS011;71993;52.478;-1.918;2023-12-20T07:19:55;1.95;;;0.80;;
61330;SDS011;71993;52.478;-1.918;2023-12-20T07:22:23;1.98;;;0.65;;
61330;SDS011;71993;52.478;-1.918;2023-12-20T07:24:52;1.02;;;0.50;;
61330;SDS011;71993;52.478;-1.918;2023-12-20T07:27:25;1.83;;;0.50;;
61330;SDS011;71993;52.478;-1.918;2023-12-20T07:29:55;1.63;;;0.50;;
61330;SDS011;71993;52.478;-1.918;2023-12-20T07:32:26;1.60;;;0.68;;
61330;SDS011;71993;52.478;-1.918;2023-12-20T07:34:56;1.45;;;0.50;;
61330;SDS011;71993;52.478;-1.918;2023-12-20T07:37:27;4.88;;;0.65;;
61330;SDS011;71993;52.478;-1.918;2023-12-20T07:39:57;1.17;;;0.40;;
61330;SDS011;71993;52.478;-1.918;2023-12-20T07:42:30;1.83;;;0.70;;
61330;SDS011;71993;52.478;-1.918;2023-12-20T07:45:00;1.20;;;0.60;;
61330;SDS011;71993;52.478;-1.918;2023-12-20T07:47:31;0.90;;;0.50;;
61330;SDS011;71993;52.478;-1.918;2023-12-20T07:50:01;1.55;;;0.50;;
61330;SDS011;71993;52.478;-1.918;2023-12-20T07:52:32;2.97;;;0.60;;
61330;SDS011;71993;52.478;-1.918;2023-12-20T07:55:03;2.58;;;0.70;;
61330;SDS011;71993;52.478;-1.918;2023-12-20T07:57:36;1.98;;;0.60;;
61330;SDS011;71993;52.478;-1.918;2023-12-20T08:00:07;3.45;;;0.52;;
61330;SDS011;71993;52.478;-1.918;2023-12-20T08:02:38;2.80;;;0.75;;
61330;SDS011;71993;52.478;-1.918;2023-12-20T08:05:08;4.15;;;0.63;;
61330;SDS011;71993;52.478;-1.918;2023-12-20T08:07:39;1.90;;;0.70;;
61330;SDS011;71993;52.478;-1.918;2023-12-20T08:10:10;2.70;;;0.80;;
61330;SDS011;71993;52.478;-1.918;2023-12-20T08:12:41;3.15;;;0.77;;
61330;SDS011;71993;52.478;-1.918;2023-12-20T08:15:11;3.25;;;0.70;;
61330;SDS011;71993;52.478;-1.918;2023-12-20T08:17:42;2.58;;;0.70;;
61330;SDS011;71993;52.478;-1.918;2023-12-20T08:20:12;1.55;;;0.77;;
61330;SDS011;71993;52.478;-1.918;2023-12-20T08:22:43;2.03;;;0.70;;
61330;SDS011;71993;52.478;-1.918;2023-12-20T08:25:13;1.92;;;0.73;;
61330;SDS011;71993;52.478;-1.918;2023-12-20T08:27:45;2.65;;;0.80;;
61330;SDS011;71993;52.478;-1.918;2023-12-20T08:30:15;2.97;;;0.70;;
61330;SDS011;71993;52.478;-1.918;2023-12-20T08:32:49;1.70;;;0.80;;
61330;SDS011;71993;52.478;-1.918;2023-12-20T08:35:19;2.55;;;0.90;;
61330;SDS011;71993;52.478;-1.918;2023-12-20T08:37:50;3.22;;;1.00;;
61330;SDS011;71993;52.478;-1.918;2023-12-20T08:40:20;2.33;;;0.85;;
61330;SDS011;71993;52.478;-1.918;2023-12-20T08:42:53;3.17;;;1.10;;
61330;SDS011;71993;52.478;-1.918;2023-12-20T08:45:24;1.75;;;1.00;;
61330;SDS011;71993;52.478;-1.918;2023-12-20T08:47:54;1.77;;;0.90;;
61330;SDS011;71993;52.478;-1.918;2023-12-20T08:50:25;3.05;;;1.00;;
61330;SDS011;71993;52.478;-1.918;2023-12-20T08:52:56;2.38;;;1.00;;
61330;SDS011;71993;52.478;-1.918;2023-12-20T08:55:26;2.33;;;1.20;;
61330;SDS011;71993;52.478;-1.918;2023-12-20T08:58:01;3.03;;;1.02;;
61330;SDS011;71993;52.478;-1.918;2023-12-20T09:00:29;1.98;;;1.08;;
61330;SDS011;71993;52.478;-1.918;2023-12-20T09:02:57;2.40;;;1.30;;
61330;SDS011;71993;52.478;-1.918;2023-12-20T09:05:28;3.05;;;1.40;;
61330;SDS011;71993;52.478;-1.918;2023-12-20T09:07:59;2.53;;;1.10;;
61330;SDS011;71993;52.478;-1.918;2023-12-20T09:10:27;3.00;;;1.30;;
61330;SDS011;71993;52.478;-1.918;2023-12-20T09:12:56;4.25;;;1.40;;
61330;SDS011;71993;52.478;-1.918;2023-12-20T09:15:29;1.77;;;1.20;;
61330;SDS011;71993;52.478;-1.918;2023-12-20T09:18:02;2.80;;;1.20;;
61330;SDS011;71993;52.478;-1.918;2023-12-20T09:20:32;2.75;;;1.30;;
61330;SDS011;71993;52.478;-1.918;2023-12-20T09:23:03;2.40;;;1.30;;
61330;SDS011;71993;52.478;-1.918;2023-12-20T09:25:33;2.97;;;1.40;;
61330;SDS011;71993;52.478;-1.918;2023-12-20T09:28:04;2.90;;;1.30;;
61330;SDS011;71993;52.478;-1.918;2023-12-20T09:30:37;2.15;;;1.20;;
61330;SDS011;71993;52.478;-1.918;2023-12-20T09:33:08;2.75;;;1.10;;
61330;SDS011;71993;52.478;-1.918;2023-12-20T09:35:39;3.53;;;1.40;;
61330;SDS011;71993;52.478;-1.918;2023-12-20T09:38:09;2.90;;;1.38;;
61330;SDS011;71993;52.478;-1.918;2023-12-20T09:40:41;2.03;;;1.25;;
61330;SDS011;71993;52.478;-1.918;2023-12-20T09:43:13;2.58;;;1.50;;
61330;SDS011;71993;52.478;-1.918;2023-12-20T09:45:47;2.97;;;1.80;;
61330;SDS011;71993;52.478;-1.918;2023-12-20T09:48:18;3.20;;;1.33;;
61330;SDS011;71993;52.478;-1.918;2023-12-20T09:50:49;2.88;;;1.30;;
61330;SDS011;71993;52.478;-1.918;2023-12-20T09:53:19;3.40;;;1.70;;
61330;SDS011;71993;52.478;-1.918;2023-12-20T09:55:51;3.20;;;1.45;;
61330;SDS011;71993;52.478;-1.918;2023-12-20T09:58:22;2.75;;;1.52;;
61330;SDS011;71993;52.478;-1.918;2023-12-20T10:00:55;2.65;;;1.40;;
61330;SDS011;71993;52.478;-1.918;2023-12-20T10:03:26;2.63;;;1.42;;
61330;SDS011;71993;52.478;-1.918;2023-12-20T10:05:56;2.78;;;1.17;;
61330;SDS011;71993;52.478;-1.918;2023-12-20T10:08:28;2.75;;;1.40;;
61330;SDS011;71993;52.478;-1.918;2023-12-20T10:10:59;3.22;;;1.30;;
61330;SDS011;71993;52.478;-1.918;2023-12-20T10:13:31;2.22;;;1.33;;
61330;SDS011;71993;52.478;-1.918;2023-12-20T10:16:05;2.03;;;1.30;;
61330;SDS011;71993;52.478;-1.918;2023-12-20T10:18:36;2.40;;;1.02;;
61330;SDS011;71993;52.478;-1.918;2023-12-20T10:21:06;2.55;;;1.20;;
61330;SDS011;71993;52.478;-1.918;2023-12-20T10:23:38;2.10;;;1.33;;
61330;SDS011;71993;52.478;-1.918;2023-12-20T10:26:09;2.08;;;1.38;;
61330;SDS011;71993;52.478;-1.918;2023-12-20T10:28:40;3.60;;;1.20;;
61330;SDS011;71993;52.478;-1.918;2023-12-20T10:31:13;2.92;;;1.25;;
61330;SDS011;71993;52.478;-1.918;2023-12-20T10:33:56;2.88;;;1.30;;
61330;SDS011;71993;52.478;-1.918;2023-12-20T10:36:28;2.15;;;1.20;;
61330;SDS011;71993;52.478;-1.918;2023-12-20T10:38:58;2.28;;;1.10;;
61330;SDS011;71993;52.478;-1.918;2023-12-20T10:41:31;1.67;;;1.00;;
61330;SDS011;71993;52.478;-1.918;2023-12-20T10:44:03;2.25;;;1.20;;
61330;SDS011;71993;52.478;-1.918;2023-12-20T10:46:37;2.63;;;1.08;;
61330;SDS011;71993;52.478;-1.918;2023-12-20T10:49:14;1.70;;;1.05;;
61330;SDS011;71993;52.478;-1.918;2023-12-20T10:51:46;1.92;;;1.00;;
61330;SDS011;71993;52.478;-1.918;2023-12-20T10:54:19;2.40;;;1.30;;
61330;SDS011;71993;52.478;-1.918;2023-12-20T10:56:49;1.73;;;1.05;;
61330;SDS011;71993;52.478;-1.918;2023-12-20T10:59:22;2.10;;;0.98;;
61330;SDS011;71993;52.478;-1.918;2023-12-20T11:01:56;2.00;;;0.95;;
61330;SDS011;71993;52.478;-1.918;2023-12-20T11:04:28;1.80;;;1.00;;
61330;SDS011;71993;52.478;-1.918;2023-12-20T11:07:03;1.90;;;1.05;;
61330;SDS011;71993;52.478;-1.918;2023-12-20T11:09:35;2.38;;;1.17;;
61330;SDS011;71993;52.478;-1.918;2023-12-20T11:12:08;2.30;;;0.90;;
61330;SDS011;71993;52.478;-1.918;2023-12-20T11:14:40;2.17;;;1.00;;
61330;SDS011;71993;52.478;-1.918;2023-12-20T11:17:15;1.95;;;1.10;;
61330;SDS011;71993;52.478;-1.918;2023-12-20T11:22:31;1.30;;;0.90;;
61330;SDS011;71993;52.478;-1.918;2023-12-20T11:25:03;2.13;;;0.93;;
61330;SDS011;71993;52.478;-1.918;2023-12-20T11:27:35;2.97;;;1.00;;
61330;SDS011;71993;52.478;-1.918;2023-12-20T11:30:07;2.20;;;1.10;;
61330;SDS011;71993;52.478;-1.918;2023-12-20T11:32:38;1.45;;;0.95;;
61330;SDS011;71993;52.478;-1.918;2023-12-20T11:35:17;2.60;;;1.10;;
61330;SDS011;71993;52.478;-1.918;2023-12-20T11:37:48;2.47;;;1.45;;
61330;SDS011;71993;52.478;-1.918;2023-12-20T11:40:19;2.22;;;1.13;;
61330;SDS011;71993;52.478;-1.918;2023-12-20T11:42:50;2.95;;;1.00;;
61330;SDS011;71993;52.478;-1.918;2023-12-20T11:45:22;2.40;;;1.30;;
61330;SDS011;71993;52.478;-1.918;2023-12-20T11:47:57;1.60;;;1.00;;
61330;SDS011;71993;52.478;-1.918;2023-12-20T11:50:28;2.28;;;1.30;;
61330;SDS011;71993;52.478;-1.918;2023-12-20T11:52:59;2.47;;;1.20;;
61330;SDS011;71993;52.478;-1.918;2023-12-20T11:55:29;1.75;;;1.10;;
61330;SDS011;71993;52.478;-1.918;2023-12-20T11:58:00;1.40;;;0.95;;
61330;SDS011;71993;52.478;-1.918;2023-12-20T12:00:30;2.25;;;1.20;;
61330;SDS011;71993;52.478;-1.918;2023-12-20T12:03:03;2.42;;;1.10;;
61330;SDS011;71993;52.478;-1.918;2023-12-20T12:05:34;1.60;;;1.02;;
61330;SDS011;71993;52.478;-1.918;2023-12-20T12:08:05;1.85;;;0.93;;
61330;SDS011;71993;52.478;-1.918;2023-12-20T12:10:35;2.13;;;1.10;;
61330;SDS011;71993;52.478;-1.918;2023-12-20T12:13:06;1.30;;;0.90;;
61330;SDS011;71993;52.478;-1.918;2023-12-20T12:15:37;1.40;;;1.00;;
61330;SDS011;71993;52.478;-1.918;2023-12-20T12:18:15;1.73;;;1.00;;
61330;SDS011;71993;52.478;-1.918;2023-12-20T12:20:45;2.53;;;1.13;;
61330;SDS011;71993;52.478;-1.918;2023-12-20T12:23:22;1.60;;;0.82;;
61330;SDS011;71993;52.478;-1.918;2023-12-20T12:25:54;1.38;;;0.82;;
61330;SDS011;71993;52.478;-1.918;2023-12-20T12:28:25;2.58;;;0.88;;
61330;SDS011;71993;52.478;-1.918;2023-12-20T12:30:56;1.42;;;0.90;;
61330;SDS011;71993;52.478;-1.918;2023-12-20T12:33:29;1.50;;;0.80;;
61330;SDS011;71993;52.478;-1.918;2023-12-20T12:36:00;1.80;;;0.73;;
61330;SDS011;71993;52.478;-1.918;2023-12-20T12:38:32;1.45;;;0.88;;
61330;SDS011;71993;52.478;-1.918;2023-12-20T12:41:03;2.08;;;0.80;;
61330;SDS011;71993;52.478;-1.918;2023-12-20T12:43:34;1.42;;;0.68;;
61330;SDS011;71993;52.478;-1.918;2023-12-20T12:46:05;1.08;;;0.60;;
61330;SDS011;71993;52.478;-1.918;2023-12-20T12:48:38;1.50;;;0.80;;
61330;SDS011;71993;52.478;-1.918;2023-12-20T12:51:09;1.83;;;0.80;;
61330;SDS011;71993;52.478;-1.918;2023-12-20T12:53:41;1.33;;;0.70;;
61330;SDS011;71993;52.478;-1.918;2023-12-20T12:56:09;1.30;;;0.65;;
61330;SDS011;71993;52.478;-1.918;2023-12-20T12:58:53;1.15;;;0.60;;
61330;SDS011;71993;52.478;-1.918;2023-12-20T13:01:36;1.23;;;0.82;;
61330;SDS011;71993;52.478;-1.918;2023-12-20T13:04:18;1.38;;;0.70;;
61330;SDS011;71993;52.478;-1.918;2023-12-20T13:06:49;1.52;;;0.70;;
61330;SDS011;71993;52.478;-1.918;2023-12-20T13:09:19;1.48;;;0.70;;
61330;SDS011;71993;52.478;-1.918;2023-12-20T13:11:50;1.75;;;0.77;;
61330;SDS011;71993;52.478;-1.918;2023-12-20T13:14:21;1.70;;;0.80;;
61330;SDS011;71993;52.478;-1.918;2023-12-20T13:16:51;1.65;;;0.77;;
61330;SDS011;71993;52.478;-1.918;2023-12-20T13:19:24;1.20;;;0.70;;
61330;SDS011;71993;52.478;-1.918;2023-12-20T13:21:55;2.20;;;0.70;;
61330;SDS011;71993;52.478;-1.918;2023-12-20T13:24:25;1.50;;;0.70;;
61330;SDS011;71993;52.478;-1.918;2023-12-20T13:26:56;0.85;;;0.60;;
61330;SDS011;71993;52.478;-1.918;2023-12-20T13:29:27;1.25;;;0.70;;
61330;SDS011;71993;52.478;-1.918;2023-12-20T13:32:00;1.67;;;0.70;;
61330;SDS011;71993;52.478;-1.918;2023-12-20T13:34:33;2.15;;;0.80;;
61330;SDS011;71993;52.478;-1.918;2023-12-20T13:37:04;1.15;;;0.60;;
61330;SDS011;71993;52.478;-1.918;2023-12-20T13:39:35;2.05;;;0.77;;
61330;SDS011;71993;52.478;-1.918;2023-12-20T13:42:05;1.92;;;0.80;;
61330;SDS011;71993;52.478;-1.918;2023-12-20T13:44:33;1.70;;;0.82;;
61330;SDS011;71993;52.478;-1.918;2023-12-20T13:47:02;1.10;;;0.70;;
61330;SDS011;71993;52.478;-1.918;2023-12-20T13:49:36;1.00;;;0.70;;
61330;SDS011;71993;52.478;-1.918;2023-12-20T13:52:04;1.45;;;0.70;;
61330;SDS011;71993;52.478;-1.918;2023-12-20T13:54:35;1.75;;;0.70;;
61330;SDS011;71993;52.478;-1.918;2023-12-20T13:57:05;0.90;;;0.60;;
61330;SDS011;71993;52.478;-1.918;2023-12-20T13:59:36;1.20;;;0.75;;
61330;SDS011;71993;52.478;-1.918;2023-12-20T14:02:06;1.55;;;0.75;;
61330;SDS011;71993;52.478;-1.918;2023-12-20T14:04:39;1.20;;;0.80;;
61330;SDS011;71993;52.478;-1.918;2023-12-20T14:07:10;1.02;;;0.70;;
61330;SDS011;71993;52.478;-1.918;2023-12-20T14:09:40;1.23;;;0.60;;
61330;SDS011;71993;52.478;-1.918;2023-12-20T14:12:12;1.38;;;0.70;;
61330;SDS011;71993;52.478;-1.918;2023-12-20T14:14:43;1.13;;;0.52;;
61330;SDS011;71993;52.478;-1.918;2023-12-20T14:17:13;1.05;;;0.70;;
61330;SDS011;71993;52.478;-1.918;2023-12-20T14:19:44;1.08;;;0.70;;
61330;SDS011;71993;52.478;-1.918;2023-12-20T14:22:15;2.00;;;0.60;;
61330;SDS011;71993;52.478;-1.918;2023-12-20T14:24:46;1.67;;;0.90;;
61330;SDS011;71993;52.478;-1.918;2023-12-20T14:27:16;1.55;;;0.90;;
61330;SDS011;71993;52.478;-1.918;2023-12-20T14:29:49;1.90;;;0.60;;
61330;SDS011;71993;52.478;-1.918;2023-12-20T14:32:20;1.52;;;0.75;;
61330;SDS011;71993;52.478;-1.918;2023-12-20T14:34:53;1.50;;;0.80;;
61330;SDS011;71993;52.478;-1.918;2023-12-20T14:37:25;1.75;;;0.90;;
61330;SDS011;71993;52.478;-1.918;2023-12-20T14:39:55;1.38;;;0.85;;
61330;SDS011;71993;52.478;-1.918;2023-12-20T14:42:26;1.02;;;0.80;;
61330;SDS011;71993;52.478;-1.918;2023-12-20T14:44:56;2.05;;;1.05;;
61330;SDS011;71993;52.478;-1.918;2023-12-20T14:47:27;2.00;;;1.10;;
61330;SDS011;71993;52.478;-1.918;2023-12-20T14:50:00;1.30;;;0.90;;
61330;SDS011;71993;52.478;-1.918;2023-12-20T14:52:30;1.63;;;1.00;;
61330;SDS011;71993;52.478;-1.918;2023-12-20T14:55:01;1.75;;;1.00;;
61330;SDS011;71993;52.478;-1.918;2023-12-20T14:57:32;2.30;;;1.05;;